Terminal Aerodrome Forecast
Issued by NWS

Home | Current Version | Previous Version | Text Only | Print | Product List | Glossary On
Versions: 1 2 3 4 5 6 7 8 9 10 11 12 13 14 15
000
FTUS45 KMSO 221907 AAA
TAFSMN
TAF AMD
KSMN 221907Z 2219/2318 20010G15KT P6SM FEW050 SCT070 OVC150
     FM230000 19003KT P6SM SCT070 BKN150
      AMD LTD TO CLD VIS AND WIND=

USA.gov is the U.S. government's official web portal to all federal, state and local government web resources and services.